METAR-berichten van nabijgelegen luchthavens

 

EHBK - Maastricht-Aachen Airport
Afstand tot station: WZW 9km
Bijgewerkt: 21-02-2018 07:25
Mist, Helder
Mist, Helder
 Wind vanuit NNO
Wind: NNO 9 km/h
Temperatuur: -4°C
Wind Chill: -8°C
Dauwpunt: -5°C
Vochtigheid: 93%
Luchtdruk: 1023 hPa
Overzicht: Mist
Bewolking: Helder
Zicht: 5 km
2018/02/21 06:25 EHBK 210625Z AUTO 03005KT 4800 BR NCD M04/M05 Q1023 NOSIG
ETNG - NATO Air Base Geilenkirchen
Afstand tot station: ONO 11km
Bijgewerkt: 21-02-2018 07:15
Mist, Gedeeltelijk bewolkt
Mist, Gedeeltelijk bewolkt
 Wind vanuit WNW
Wind: WNW 6 km/h
Temperatuur: -5°C
Dauwpunt: -7°C
Vochtigheid: 86%
Luchtdruk: 1024 hPa
Overzicht: Mist
Bewolking: Gedeeltelijk bewolkt
Zicht: 4 km
Details bewolking: Licht bewolkt 1067 m
Gedeeltelijk bewolkt 6096 m
2018/02/21 06:15 ETNG 210615Z 29003KT 4000 BR FEW035 SCT200 M05/M07 Q1024 BECMG 5000